Northern Sonoma County Latest

25 Stations

15 Minute Data | America/Los_Angeles
as of 5/9/26 5:33 AM PDT
Station Date Time Temp (°F) RH (%) Dew Pt (°F) Wind Spd (mph) Wind Dir (°) Wind Gust (mph) Latest Rain (In) Daily Rain (In) Daily Max Temp (°F) Daily Min Temp (°F)
Bavarian Lion EFW 5/9/26 0530 48.6   3.4 - - - - - 0.00 0.00 51.8   0.6 47.9   3.8
Rockpile Lower (Cooley) 5/9/26 0515 54.4   7.6 67   27 43.8   1.4 3.3   3.3 NNW | 327 6.5   6.1 0.00 0.00 58.2   6.1 53.4   6.7
Rockpile Upper (Cooley) 5/9/26 0530 53.5   9.7 65   34 42.2   1.6 11.8   0.4 NNW | 331 14.9   2.9 0.00 0.00 58.4   8.5 50.9   7.3
Lower Dry Creek Valley 5/9/26 0530 47.3   3.9 100   0 47.3   3.9 0.0   0.0 N | 0 0.0   2.6 0.00 0.00 51.7   1.5 47.2   3.6
Geyserville-South (Nervo Station) 5/9/26 0530 49.6   0.2 - - 0.0   1.1 N | 0 0.0   2.7 0.00 0.00 53.6   1.1 49.0   0.0
Franz Valley (Stornetta) 5/9/26 0530 45.9   5.6 96   0 44.8   5.4 0.1   0.6 SW | 222 1.1   2.3 0.00 0.00 50.5   1.1 45.9   5.2
Geyserville (Ranch 3) 5/9/26 0530 49.0   0.2 100   0 49.0   0.1 0.0   1.2 N | 0 0.0   2.9 0.00 0.00 53.8   0.1 48.9   0.4
Geyserville-North (Hoffman) 5/9/26 0530 46.9   1.2 94   0 45.4   1.3 0.1   0.3 NW | 311 1.2   1.0 0.00 0.00 51.9   1.7 46.5   1.2
Knights Valley (Bavarian Lion) 5/9/26 0530 47.6   4.0 97   1 46.8   3.6 0.1   1.0 S | 175 1.1   2.8 0.00 0.00 50.7   1.0 46.4   4.7
HWY 128/Chalk Hill Rd (Landslide) 5/9/26 0500 47.2   5.6 96   0 46.2   5.5 0.0   0.6 N | 0 0.0   1.8 0.00 0.00 51.1   2.1 47.1   5.4
Newman Knights Valley 5/9/26 0530 47.8   4.9 88   0 44.4   4.7 0.3   0.4 NNE | 33 1.5   0.7 0.00 0.00 51.1   1.8 47.6   4.8
Jimtown-North (Piccolo Ranch 15) 5/9/26 0530 47.5   4.8 100   7 47.5   2.8 0.0   1.8 N | 0 0.0   4.2 0.00 0.00 50.9   3.1 47.0   4.9
Peterson (Ranch 09) 5/9/26 0530 47.6   4.0 93   7 45.8   1.9 0.5   1.0 E | 96 1.7   1.4 0.00 0.00 52.2   0.7 47.6   3.8
Cloverdale-SE (Ranch 38) 5/9/26 0530 51.7   4.1 86   12 47.8   0.6 1.2   2.2 NNW | 332 3.1   2.1 0.00 0.00 57.7   5.8 51.5   4.2
Geyserville-East (Ranch 40) 5/9/26 0530 51.1   1.7 93   7 49.1   0.2 1.3   0.7 NNE | 32 2.3   2.2 0.00 0.00 54.4   2.9 49.9   0.6
N Chalk Hill Rd (Ranch 63) 5/9/26 0530 45.8   5.0 100   9 45.7   2.5 0.2   1.5 ESE | 115 1.0   3.2 0.00 0.00 50.3   1.1 45.8   4.8
Cloverdale-East (Ranch 83) 5/9/26 0530 48.6   0.2 - - 0.2   0.1 NW | 308 1.2   0.4 0.00 0.00 54.4   1.8 48.2   0.6
Crazy Creek Ranch 5/9/26 0530 47.9   4.8 98   2 47.2   4.4 0.2   1.9 W | 272 1.1   3.4 0.00 0.00 51.7   2.1 47.9   4.8
Lytton East (Hill 5) 5/9/26 0530 48.4   1.4 94   2 46.7   1.9 0.8   2.2 NE | 54 2.0   4.2 0.00 0.00 52.6   0.9 47.9   0.7
Lytton East (Shop Hill Bottom) 5/9/26 0530 45.5   4.4 94   0 44.0   4.5 0.2   1.4 NE | 52 1.7   1.4 0.00 0.00 51.3   0.7 45.2   3.2
Lytton West Hill (23PS) 5/9/26 0530 49.0   2.0 98   4 48.4   0.9 1.0   0.0 NW | 310 1.6   1.2 0.00 0.00 52.3   0.3 48.7   2.2
Lytton West Lower (Lew 6) 5/9/26 0530 45.0   5.5 100   7 45.0   3.5 0.0   1.5 ENE | 61 0.8   2.4 0.00 0.00 49.3   3.2 44.6   5.7
Whitton Ranch (201e) 5/9/26 0530 43.9   5.7 100   7 43.9   3.7 0.0   0.9 W | 279 0.5   1.7 0.00 0.00 47.6   5.2 43.8   5.2
Upper Dry Creek Valley 5/9/26 0530 46.5   3.4 95   0 45.2   3.2 0.0   1.3 NNW | 339 0.8   2.1 0.00 0.00 51.5   1.3 46.4   3.2
Big River 5/9/26 0530 48.6   3.0 99   2 48.3   2.4 0.1   0.1 NNE | 30 1.0   0.4 0.00 0.00 52.2   0.4 48.6   2.9
Max     54.4 100 49.1 11.8 - 14.9 0.00 0.00 58.4 53.4
Avg     48.2 93 46.1 0.9 - 1.9 0.00 - - -
Min     43.9 65 42.2 0.0 - 0.0 0.00 0.00 47.6 43.8